sensor_id;sensor_type;location;lat;lon;timestamp;temperature;humidity
22742;DHT22;11538;48.884;8.696;2022-08-19T00:02:11;22.80;99.90
22742;DHT22;11538;48.884;8.696;2022-08-19T00:04:37;22.80;99.90
22742;DHT22;11538;48.884;8.696;2022-08-19T00:07:06;22.80;99.90
22742;DHT22;11538;48.884;8.696;2022-08-19T00:09:34;22.70;99.90
22742;DHT22;11538;48.884;8.696;2022-08-19T00:12:01;22.70;99.90
22742;DHT22;11538;48.884;8.696;2022-08-19T00:14:29;22.70;99.90
22742;DHT22;11538;48.884;8.696;2022-08-19T00:16:59;22.70;99.90
22742;DHT22;11538;48.884;8.696;2022-08-19T00:19:26;22.70;99.90
22742;DHT22;11538;48.884;8.696;2022-08-19T00:21:53;22.70;99.90
22742;DHT22;11538;48.884;8.696;2022-08-19T00:24:22;22.70;99.90
22742;DHT22;11538;48.884;8.696;2022-08-19T00:26:51;22.70;99.90
22742;DHT22;11538;48.884;8.696;2022-08-19T00:29:20;22.70;99.90
22742;DHT22;11538;48.884;8.696;2022-08-19T00:31:48;22.70;99.90
22742;DHT22;11538;48.884;8.696;2022-08-19T00:34:16;22.70;99.90
22742;DHT22;11538;48.884;8.696;2022-08-19T00:36:44;22.70;99.90
22742;DHT22;11538;48.884;8.696;2022-08-19T00:39:14;22.70;99.90
22742;DHT22;11538;48.884;8.696;2022-08-19T00:41:45;22.70;99.90
22742;DHT22;11538;48.884;8.696;2022-08-19T00:44:18;22.80;99.90
22742;DHT22;11538;48.884;8.696;2022-08-19T00:46:53;22.80;99.90
22742;DHT22;11538;48.884;8.696;2022-08-19T00:49:37;22.80;99.90
22742;DHT22;11538;48.884;8.696;2022-08-19T00:52:30;22.80;99.90
22742;DHT22;11538;48.884;8.696;2022-08-19T00:55:04;22.80;99.90
22742;DHT22;11538;48.884;8.696;2022-08-19T00:57:38;22.80;99.90
22742;DHT22;11538;48.884;8.696;2022-08-19T01:00:11;22.80;99.90
22742;DHT22;11538;48.884;8.696;2022-08-19T01:02:42;22.80;99.90
22742;DHT22;11538;48.884;8.696;2022-08-19T01:05:14;22.70;99.90
22742;DHT22;11538;48.884;8.696;2022-08-19T01:07:45;22.70;99.90
22742;DHT22;11538;48.884;8.696;2022-08-19T01:10:19;22.70;99.90
22742;DHT22;11538;48.884;8.696;2022-08-19T01:12:50;22.70;99.90
22742;DHT22;11538;48.884;8.696;2022-08-19T01:15:23;22.70;99.90
22742;DHT22;11538;48.884;8.696;2022-08-19T01:17:55;22.70;99.90
22742;DHT22;11538;48.884;8.696;2022-08-19T01:20:26;22.70;99.90
22742;DHT22;11538;48.884;8.696;2022-08-19T01:22:59;22.70;99.90
22742;DHT22;11538;48.884;8.696;2022-08-19T01:25:41;22.70;99.90
22742;DHT22;11538;48.884;8.696;2022-08-19T01:28:19;22.60;99.90
22742;DHT22;11538;48.884;8.696;2022-08-19T01:31:07;22.60;99.90
22742;DHT22;11538;48.884;8.696;2022-08-19T01:33:54;22.70;99.90
22742;DHT22;11538;48.884;8.696;2022-08-19T01:36:39;22.70;99.90
22742;DHT22;11538;48.884;8.696;2022-08-19T01:39:11;22.70;99.90
22742;DHT22;11538;48.884;8.696;2022-08-19T01:41:40;22.60;99.90
22742;DHT22;11538;48.884;8.696;2022-08-19T01:44:08;22.60;99.90
22742;DHT22;11538;48.884;8.696;2022-08-19T01:46:47;22.60;99.90
22742;DHT22;11538;48.884;8.696;2022-08-19T01:49:17;22.50;99.90
22742;DHT22;11538;48.884;8.696;2022-08-19T01:51:46;22.50;99.90
22742;DHT22;11538;48.884;8.696;2022-08-19T01:54:15;22.50;99.90
22742;DHT22;11538;48.884;8.696;2022-08-19T01:56:57;22.50;99.90
22742;DHT22;11538;48.884;8.696;2022-08-19T01:59:35;22.50;99.90
22742;DHT22;11538;48.884;8.696;2022-08-19T02:02:05;22.50;99.90
22742;DHT22;11538;48.884;8.696;2022-08-19T02:04:35;22.50;99.90
22742;DHT22;11538;48.884;8.696;2022-08-19T02:07:05;22.50;99.90
22742;DHT22;11538;48.884;8.696;2022-08-19T02:09:35;22.50;99.90
22742;DHT22;11538;48.884;8.696;2022-08-19T02:12:03;22.40;99.90
22742;DHT22;11538;48.884;8.696;2022-08-19T02:14:31;22.40;99.90
22742;DHT22;11538;48.884;8.696;2022-08-19T02:17:00;22.40;99.90
22742;DHT22;11538;48.884;8.696;2022-08-19T02:19:28;22.40;99.90
22742;DHT22;11538;48.884;8.696;2022-08-19T02:21:54;22.40;99.90
22742;DHT22;11538;48.884;8.696;2022-08-19T02:24:21;22.40;99.90
22742;DHT22;11538;48.884;8.696;2022-08-19T02:26:48;22.40;99.90
22742;DHT22;11538;48.884;8.696;2022-08-19T02:29:15;22.40;99.90
22742;DHT22;11538;48.884;8.696;2022-08-19T02:31:42;22.40;99.90
22742;DHT22;11538;48.884;8.696;2022-08-19T02:34:09;22.40;99.90
22742;DHT22;11538;48.884;8.696;2022-08-19T02:36:36;22.40;99.90
22742;DHT22;11538;48.884;8.696;2022-08-19T02:39:09;22.40;99.90
22742;DHT22;11538;48.884;8.696;2022-08-19T02:41:37;22.40;99.90
22742;DHT22;11538;48.884;8.696;2022-08-19T02:44:04;22.40;99.90
22742;DHT22;11538;48.884;8.696;2022-08-19T02:46:51;22.40;99.90
22742;DHT22;11538;48.884;8.696;2022-08-19T02:49:19;22.30;99.90
22742;DHT22;11538;48.884;8.696;2022-08-19T02:51:49;22.30;99.90
22742;DHT22;11538;48.884;8.696;2022-08-19T02:54:18;22.30;99.90
22742;DHT22;11538;48.884;8.696;2022-08-19T02:56:45;22.30;99.90
22742;DHT22;11538;48.884;8.696;2022-08-19T02:59:13;22.30;99.90
22742;DHT22;11538;48.884;8.696;2022-08-19T03:01:41;22.30;99.90
22742;DHT22;11538;48.884;8.696;2022-08-19T03:04:10;22.20;99.90
22742;DHT22;11538;48.884;8.696;2022-08-19T03:06:42;22.20;99.90
22742;DHT22;11538;48.884;8.696;2022-08-19T03:09:12;22.20;99.90
22742;DHT22;11538;48.884;8.696;2022-08-19T03:11:41;22.20;99.90
22742;DHT22;11538;48.884;8.696;2022-08-19T03:14:08;22.20;99.90
22742;DHT22;11538;48.884;8.696;2022-08-19T03:16:43;22.10;99.90
22742;DHT22;11538;48.884;8.696;2022-08-19T03:19:18;22.10;99.90
22742;DHT22;11538;48.884;8.696;2022-08-19T03:21:47;22.10;99.90
22742;DHT22;11538;48.884;8.696;2022-08-19T03:24:15;22.10;99.90
22742;DHT22;11538;48.884;8.696;2022-08-19T03:26:46;22.10;99.90
22742;DHT22;11538;48.884;8.696;2022-08-19T03:29:16;22.10;99.90
22742;DHT22;11538;48.884;8.696;2022-08-19T03:32:00;22.00;99.90
22742;DHT22;11538;48.884;8.696;2022-08-19T03:34:32;22.00;99.90
22742;DHT22;11538;48.884;8.696;2022-08-19T03:37:08;22.00;99.90
22742;DHT22;11538;48.884;8.696;2022-08-19T03:39:39;22.00;99.90
22742;DHT22;11538;48.884;8.696;2022-08-19T03:42:08;22.00;99.90
22742;DHT22;11538;48.884;8.696;2022-08-19T03:44:55;22.00;99.90
22742;DHT22;11538;48.884;8.696;2022-08-19T03:47:22;22.00;99.90
22742;DHT22;11538;48.884;8.696;2022-08-19T03:49:49;22.00;99.90
22742;DHT22;11538;48.884;8.696;2022-08-19T03:52:16;22.00;99.90
22742;DHT22;11538;48.884;8.696;2022-08-19T03:54:43;21.90;99.90
22742;DHT22;11538;48.884;8.696;2022-08-19T03:57:11;21.90;99.90
22742;DHT22;11538;48.884;8.696;2022-08-19T03:59:39;21.90;99.90
22742;DHT22;11538;48.884;8.696;2022-08-19T04:02:09;21.90;99.90
22742;DHT22;11538;48.884;8.696;2022-08-19T04:04:39;21.90;99.90
22742;DHT22;11538;48.884;8.696;2022-08-19T04:07:11;21.90;99.90
22742;DHT22;11538;48.884;8.696;2022-08-19T04:09:42;21.90;99.90
22742;DHT22;11538;48.884;8.696;2022-08-19T04:12:09;21.90;99.90
22742;DHT22;11538;48.884;8.696;2022-08-19T04:14:36;21.90;99.90
22742;DHT22;11538;48.884;8.696;2022-08-19T04:17:03;21.90;99.90
22742;DHT22;11538;48.884;8.696;2022-08-19T04:19:34;21.90;99.90
22742;DHT22;11538;48.884;8.696;2022-08-19T04:22:03;21.80;99.90
22742;DHT22;11538;48.884;8.696;2022-08-19T04:24:31;21.80;99.90
22742;DHT22;11538;48.884;8.696;2022-08-19T04:27:02;21.80;99.90
22742;DHT22;11538;48.884;8.696;2022-08-19T04:29:32;21.80;99.90
22742;DHT22;11538;48.884;8.696;2022-08-19T04:31:59;21.80;99.90
22742;DHT22;11538;48.884;8.696;2022-08-19T04:34:35;21.80;99.90
22742;DHT22;11538;48.884;8.696;2022-08-19T04:37:23;21.80;99.90
22742;DHT22;11538;48.884;8.696;2022-08-19T04:39:51;21.80;99.90
22742;DHT22;11538;48.884;8.696;2022-08-19T04:42:36;21.80;99.90
22742;DHT22;11538;48.884;8.696;2022-08-19T04:45:09;21.80;99.90
22742;DHT22;11538;48.884;8.696;2022-08-19T04:47:40;21.80;99.90
22742;DHT22;11538;48.884;8.696;2022-08-19T04:50:17;21.70;99.90
22742;DHT22;11538;48.884;8.696;2022-08-19T04:52:45;21.70;99.90
22742;DHT22;11538;48.884;8.696;2022-08-19T04:55:12;21.80;99.90
22742;DHT22;11538;48.884;8.696;2022-08-19T04:57:40;21.80;99.90
22742;DHT22;11538;48.884;8.696;2022-08-19T05:00:08;21.80;99.90
22742;DHT22;11538;48.884;8.696;2022-08-19T05:02:36;21.80;99.90
22742;DHT22;11538;48.884;8.696;2022-08-19T05:05:06;21.80;99.90
22742;DHT22;11538;48.884;8.696;2022-08-19T05:07:33;21.80;99.90
22742;DHT22;11538;48.884;8.696;2022-08-19T05:10:02;21.80;99.90
22742;DHT22;11538;48.884;8.696;2022-08-19T05:12:31;21.70;99.90
22742;DHT22;11538;48.884;8.696;2022-08-19T05:14:58;21.80;99.90
22742;DHT22;11538;48.884;8.696;2022-08-19T05:17:27;21.80;99.90
22742;DHT22;11538;48.884;8.696;2022-08-19T05:20:00;21.80;99.90
22742;DHT22;11538;48.884;8.696;2022-08-19T05:22:46;21.80;99.90
22742;DHT22;11538;48.884;8.696;2022-08-19T05:25:18;21.80;99.90
22742;DHT22;11538;48.884;8.696;2022-08-19T05:27:47;21.80;99.90
22742;DHT22;11538;48.884;8.696;2022-08-19T05:30:16;21.80;99.90
22742;DHT22;11538;48.884;8.696;2022-08-19T05:32:43;21.80;99.90
22742;DHT22;11538;48.884;8.696;2022-08-19T05:35:10;21.70;99.90
22742;DHT22;11538;48.884;8.696;2022-08-19T05:37:38;21.80;99.90
22742;DHT22;11538;48.884;8.696;2022-08-19T05:40:16;21.70;99.90
22742;DHT22;11538;48.884;8.696;2022-08-19T05:42:43;21.70;99.90
22742;DHT22;11538;48.884;8.696;2022-08-19T05:45:20;21.70;99.90
22742;DHT22;11538;48.884;8.696;2022-08-19T05:47:49;21.70;99.90
22742;DHT22;11538;48.884;8.696;2022-08-19T05:50:16;21.70;99.90
22742;DHT22;11538;48.884;8.696;2022-08-19T05:52:44;21.70;99.90
22742;DHT22;11538;48.884;8.696;2022-08-19T05:55:15;21.70;99.90
22742;DHT22;11538;48.884;8.696;2022-08-19T05:57:42;21.70;99.90
22742;DHT22;11538;48.884;8.696;2022-08-19T06:00:10;21.70;99.90
22742;DHT22;11538;48.884;8.696;2022-08-19T06:02:38;21.70;99.90
22742;DHT22;11538;48.884;8.696;2022-08-19T06:05:07;21.70;99.90
22742;DHT22;11538;48.884;8.696;2022-08-19T06:07:36;21.80;99.90
22742;DHT22;11538;48.884;8.696;2022-08-19T06:10:05;21.80;99.90
22742;DHT22;11538;48.884;8.696;2022-08-19T06:12:34;21.80;99.90
22742;DHT22;11538;48.884;8.696;2022-08-19T06:15:08;21.80;99.90
22742;DHT22;11538;48.884;8.696;2022-08-19T06:17:38;21.90;99.90
22742;DHT22;11538;48.884;8.696;2022-08-19T06:20:08;21.90;99.90
22742;DHT22;11538;48.884;8.696;2022-08-19T06:22:41;21.90;99.90
22742;DHT22;11538;48.884;8.696;2022-08-19T06:25:12;21.90;99.90
22742;DHT22;11538;48.884;8.696;2022-08-19T06:27:41;22.00;99.90
22742;DHT22;11538;48.884;8.696;2022-08-19T06:30:28;22.00;99.90
22742;DHT22;11538;48.884;8.696;2022-08-19T06:32:55;22.00;99.90
22742;DHT22;11538;48.884;8.696;2022-08-19T06:35:22;22.00;99.90
22742;DHT22;11538;48.884;8.696;2022-08-19T06:37:49;22.10;99.90
22742;DHT22;11538;48.884;8.696;2022-08-19T06:40:16;22.10;99.90
22742;DHT22;11538;48.884;8.696;2022-08-19T06:42:43;22.10;99.90
22742;DHT22;11538;48.884;8.696;2022-08-19T06:45:21;22.20;99.90
22742;DHT22;11538;48.884;8.696;2022-08-19T06:48:00;22.20;99.90
22742;DHT22;11538;48.884;8.696;2022-08-19T06:50:27;22.20;99.90
22742;DHT22;11538;48.884;8.696;2022-08-19T06:52:54;22.20;99.90
22742;DHT22;11538;48.884;8.696;2022-08-19T06:55:21;22.20;99.90
22742;DHT22;11538;48.884;8.696;2022-08-19T06:57:49;22.30;99.90
22742;DHT22;11538;48.884;8.696;2022-08-19T07:00:20;22.30;99.90
22742;DHT22;11538;48.884;8.696;2022-08-19T07:02:47;22.30;99.90
22742;DHT22;11538;48.884;8.696;2022-08-19T07:05:23;22.40;99.90
22742;DHT22;11538;48.884;8.696;2022-08-19T07:07:50;22.40;99.90
22742;DHT22;11538;48.884;8.696;2022-08-19T07:10:17;22.50;99.90
22742;DHT22;11538;48.884;8.696;2022-08-19T07:12:45;22.60;99.90
22742;DHT22;11538;48.884;8.696;2022-08-19T07:15:21;22.60;99.90
22742;DHT22;11538;48.884;8.696;2022-08-19T07:17:48;22.60;99.90
22742;DHT22;11538;48.884;8.696;2022-08-19T07:20:19;22.60;99.90
22742;DHT22;11538;48.884;8.696;2022-08-19T07:22:46;22.60;99.90
22742;DHT22;11538;48.884;8.696;2022-08-19T07:25:14;22.70;99.90
22742;DHT22;11538;48.884;8.696;2022-08-19T07:27:43;22.70;99.90
22742;DHT22;11538;48.884;8.696;2022-08-19T07:30:12;22.70;99.90
22742;DHT22;11538;48.884;8.696;2022-08-19T07:32:40;22.70;99.90
22742;DHT22;11538;48.884;8.696;2022-08-19T07:35:07;22.70;99.90
22742;DHT22;11538;48.884;8.696;2022-08-19T07:37:36;22.70;99.90
22742;DHT22;11538;48.884;8.696;2022-08-19T07:40:06;22.70;99.90
22742;DHT22;11538;48.884;8.696;2022-08-19T07:42:34;22.70;99.90
22742;DHT22;11538;48.884;8.696;2022-08-19T07:45:01;22.70;99.90
22742;DHT22;11538;48.884;8.696;2022-08-19T07:47:28;22.80;99.90
22742;DHT22;11538;48.884;8.696;2022-08-19T07:50:17;22.80;99.90
22742;DHT22;11538;48.884;8.696;2022-08-19T07:52:46;22.90;99.90
22742;DHT22;11538;48.884;8.696;2022-08-19T07:55:19;22.90;99.90
22742;DHT22;11538;48.884;8.696;2022-08-19T07:58:14;22.90;99.90
22742;DHT22;11538;48.884;8.696;2022-08-19T08:00:45;23.00;99.90
22742;DHT22;11538;48.884;8.696;2022-08-19T08:03:16;23.00;99.90
22742;DHT22;11538;48.884;8.696;2022-08-19T08:05:45;23.00;99.90
22742;DHT22;11538;48.884;8.696;2022-08-19T08:08:31;23.00;99.90
22742;DHT22;11538;48.884;8.696;2022-08-19T08:11:19;23.00;99.90
22742;DHT22;11538;48.884;8.696;2022-08-19T08:13:49;23.10;99.90
22742;DHT22;11538;48.884;8.696;2022-08-19T08:16:34;23.10;99.90
22742;DHT22;11538;48.884;8.696;2022-08-19T08:19:13;23.20;99.90
22742;DHT22;11538;48.884;8.696;2022-08-19T08:21:52;23.30;99.90
22742;DHT22;11538;48.884;8.696;2022-08-19T08:24:25;23.40;99.90
22742;DHT22;11538;48.884;8.696;2022-08-19T08:26:54;23.50;99.90
22742;DHT22;11538;48.884;8.696;2022-08-19T08:29:24;23.70;99.90
22742;DHT22;11538;48.884;8.696;2022-08-19T08:32:01;23.80;99.90
22742;DHT22;11538;48.884;8.696;2022-08-19T08:34:28;23.90;99.90
22742;DHT22;11538;48.884;8.696;2022-08-19T08:36:55;24.00;99.90
22742;DHT22;11538;48.884;8.696;2022-08-19T08:39:22;24.00;99.90
22742;DHT22;11538;48.884;8.696;2022-08-19T08:45:14;24.20;99.90
22742;DHT22;11538;48.884;8.696;2022-08-19T08:47:48;24.20;99.90
22742;DHT22;11538;48.884;8.696;2022-08-19T08:50:24;24.30;99.90
22742;DHT22;11538;48.884;8.696;2022-08-19T08:53:03;24.30;99.90
22742;DHT22;11538;48.884;8.696;2022-08-19T08:55:33;24.40;99.90
22742;DHT22;11538;48.884;8.696;2022-08-19T08:58:10;24.40;99.90
22742;DHT22;11538;48.884;8.696;2022-08-19T09:00:53;24.40;99.90
22742;DHT22;11538;48.884;8.696;2022-08-19T09:03:27;24.40;99.90
22742;DHT22;11538;48.884;8.696;2022-08-19T09:08:45;24.50;99.90
22742;DHT22;11538;48.884;8.696;2022-08-19T09:17:29;24.60;99.90
22742;DHT22;11538;48.884;8.696;2022-08-19T09:20:03;24.70;99.90
22742;DHT22;11538;48.884;8.696;2022-08-19T09:22:39;24.70;99.90
22742;DHT22;11538;48.884;8.696;2022-08-19T09:25:09;24.80;99.90
22742;DHT22;11538;48.884;8.696;2022-08-19T09:27:39;24.80;99.90
22742;DHT22;11538;48.884;8.696;2022-08-19T09:30:12;24.80;99.90
22742;DHT22;11538;48.884;8.696;2022-08-19T09:32:42;24.90;99.90
22742;DHT22;11538;48.884;8.696;2022-08-19T09:35:11;25.00;99.90
22742;DHT22;11538;48.884;8.696;2022-08-19T09:37:41;25.10;99.90
22742;DHT22;11538;48.884;8.696;2022-08-19T09:40:11;25.10;99.90
22742;DHT22;11538;48.884;8.696;2022-08-19T09:42:39;25.20;99.90
22742;DHT22;11538;48.884;8.696;2022-08-19T09:45:17;25.20;99.90
22742;DHT22;11538;48.884;8.696;2022-08-19T09:47:49;25.30;99.90
22742;DHT22;11538;48.884;8.696;2022-08-19T09:50:21;25.40;99.90
22742;DHT22;11538;48.884;8.696;2022-08-19T09:52:50;25.40;99.90
22742;DHT22;11538;48.884;8.696;2022-08-19T09:55:23;25.50;99.90
22742;DHT22;11538;48.884;8.696;2022-08-19T09:57:59;25.50;99.90
22742;DHT22;11538;48.884;8.696;2022-08-19T10:00:28;25.60;99.90
22742;DHT22;11538;48.884;8.696;2022-08-19T10:02:55;25.60;99.90
22742;DHT22;11538;48.884;8.696;2022-08-19T10:05:22;25.70;99.90
22742;DHT22;11538;48.884;8.696;2022-08-19T10:08:09;25.70;99.90
22742;DHT22;11538;48.884;8.696;2022-08-19T10:10:39;25.80;99.90
22742;DHT22;11538;48.884;8.696;2022-08-19T10:13:15;25.90;99.90
22742;DHT22;11538;48.884;8.696;2022-08-19T10:15:44;26.00;99.90
22742;DHT22;11538;48.884;8.696;2022-08-19T10:18:15;26.00;99.90
22742;DHT22;11538;48.884;8.696;2022-08-19T10:20:46;26.10;99.90
22742;DHT22;11538;48.884;8.696;2022-08-19T10:23:18;26.10;99.90
22742;DHT22;11538;48.884;8.696;2022-08-19T10:25:48;26.20;99.90
22742;DHT22;11538;48.884;8.696;2022-08-19T10:28:16;26.30;99.90
22742;DHT22;11538;48.884;8.696;2022-08-19T10:30:46;26.30;99.90
22742;DHT22;11538;48.884;8.696;2022-08-19T10:33:14;26.40;99.90
22742;DHT22;11538;48.884;8.696;2022-08-19T10:36:10;26.40;99.90
22742;DHT22;11538;48.884;8.696;2022-08-19T10:38:49;26.40;99.90
22742;DHT22;11538;48.884;8.696;2022-08-19T10:41:25;26.40;99.90
22742;DHT22;11538;48.884;8.696;2022-08-19T10:43:55;26.30;99.90
22742;DHT22;11538;48.884;8.696;2022-08-19T10:46:30;26.30;99.90
22742;DHT22;11538;48.884;8.696;2022-08-19T10:49:00;26.40;99.90
22742;DHT22;11538;48.884;8.696;2022-08-19T10:51:28;26.40;99.90
22742;DHT22;11538;48.884;8.696;2022-08-19T10:54:15;26.30;99.90
22742;DHT22;11538;48.884;8.696;2022-08-19T10:56:56;26.20;99.90
22742;DHT22;11538;48.884;8.696;2022-08-19T10:59:28;26.30;99.90
22742;DHT22;11538;48.884;8.696;2022-08-19T11:02:05;26.50;99.90
22742;DHT22;11538;48.884;8.696;2022-08-19T11:04:33;26.60;99.90
22742;DHT22;11538;48.884;8.696;2022-08-19T11:07:01;26.80;99.90
22742;DHT22;11538;48.884;8.696;2022-08-19T11:09:31;26.80;99.90
22742;DHT22;11538;48.884;8.696;2022-08-19T11:12:08;26.90;99.90
22742;DHT22;11538;48.884;8.696;2022-08-19T11:14:37;26.90;99.90
22742;DHT22;11538;48.884;8.696;2022-08-19T11:17:05;26.80;99.90
22742;DHT22;11538;48.884;8.696;2022-08-19T11:19:33;27.00;99.90
22742;DHT22;11538;48.884;8.696;2022-08-19T11:22:02;27.20;99.90
22742;DHT22;11538;48.884;8.696;2022-08-19T11:24:30;27.50;99.90
22742;DHT22;11538;48.884;8.696;2022-08-19T11:27:07;27.70;99.90
22742;DHT22;11538;48.884;8.696;2022-08-19T11:29:38;27.80;99.90
22742;DHT22;11538;48.884;8.696;2022-08-19T11:32:07;27.80;99.90
22742;DHT22;11538;48.884;8.696;2022-08-19T11:34:36;27.80;99.90
22742;DHT22;11538;48.884;8.696;2022-08-19T11:37:04;27.80;99.90
22742;DHT22;11538;48.884;8.696;2022-08-19T11:39:33;27.90;99.90
22742;DHT22;11538;48.884;8.696;2022-08-19T11:42:05;28.10;99.90
22742;DHT22;11538;48.884;8.696;2022-08-19T11:44:53;28.30;99.90
22742;DHT22;11538;48.884;8.696;2022-08-19T11:47:21;28.40;99.90
22742;DHT22;11538;48.884;8.696;2022-08-19T11:49:48;28.40;99.90
22742;DHT22;11538;48.884;8.696;2022-08-19T11:52:15;28.60;99.90
22742;DHT22;11538;48.884;8.696;2022-08-19T11:54:42;28.70;99.90
22742;DHT22;11538;48.884;8.696;2022-08-19T11:57:09;28.90;99.90
22742;DHT22;11538;48.884;8.696;2022-08-19T11:59:54;28.90;99.90
22742;DHT22;11538;48.884;8.696;2022-08-19T12:02:21;28.90;99.90
22742;DHT22;11538;48.884;8.696;2022-08-19T12:04:49;29.20;99.90
22742;DHT22;11538;48.884;8.696;2022-08-19T12:07:16;29.50;99.90
22742;DHT22;11538;48.884;8.696;2022-08-19T12:09:43;29.80;99.90
22742;DHT22;11538;48.884;8.696;2022-08-19T12:12:14;30.00;99.90
22742;DHT22;11538;48.884;8.696;2022-08-19T12:14:41;29.90;99.90
22742;DHT22;11538;48.884;8.696;2022-08-19T12:17:08;29.80;99.90
22742;DHT22;11538;48.884;8.696;2022-08-19T12:19:36;29.80;99.90
22742;DHT22;11538;48.884;8.696;2022-08-19T12:22:03;29.70;99.90
22742;DHT22;11538;48.884;8.696;2022-08-19T12:24:33;29.80;99.90
22742;DHT22;11538;48.884;8.696;2022-08-19T12:27:00;29.90;99.90
22742;DHT22;11538;48.884;8.696;2022-08-19T12:29:29;30.00;99.90
22742;DHT22;11538;48.884;8.696;2022-08-19T12:31:59;29.90;99.90
22742;DHT22;11538;48.884;8.696;2022-08-19T12:34:30;29.90;99.90
22742;DHT22;11538;48.884;8.696;2022-08-19T12:37:01;29.80;99.90
22742;DHT22;11538;48.884;8.696;2022-08-19T12:39:33;29.70;99.90
22742;DHT22;11538;48.884;8.696;2022-08-19T12:42:02;29.60;99.90
22742;DHT22;11538;48.884;8.696;2022-08-19T12:44:29;29.50;99.90
22742;DHT22;11538;48.884;8.696;2022-08-19T12:46:59;29.70;99.90
22742;DHT22;11538;48.884;8.696;2022-08-19T12:49:30;29.80;99.90
22742;DHT22;11538;48.884;8.696;2022-08-19T12:52:20;29.70;99.90
22742;DHT22;11538;48.884;8.696;2022-08-19T12:54:49;29.60;99.90
22742;DHT22;11538;48.884;8.696;2022-08-19T12:57:21;29.40;99.90
22742;DHT22;11538;48.884;8.696;2022-08-19T13:00:20;29.30;99.90
22742;DHT22;11538;48.884;8.696;2022-08-19T13:02:50;29.20;99.90
22742;DHT22;11538;48.884;8.696;2022-08-19T13:05:30;29.20;99.90
22742;DHT22;11538;48.884;8.696;2022-08-19T13:08:00;29.30;99.90
22742;DHT22;11538;48.884;8.696;2022-08-19T13:10:33;29.60;99.90
22742;DHT22;11538;48.884;8.696;2022-08-19T13:13:04;29.70;99.90
22742;DHT22;11538;48.884;8.696;2022-08-19T13:15:39;29.60;99.90
22742;DHT22;11538;48.884;8.696;2022-08-19T13:18:09;29.50;99.90
22742;DHT22;11538;48.884;8.696;2022-08-19T13:20:38;29.30;99.90
22742;DHT22;11538;48.884;8.696;2022-08-19T13:23:08;29.20;99.90
22742;DHT22;11538;48.884;8.696;2022-08-19T13:25:38;29.00;99.90
22742;DHT22;11538;48.884;8.696;2022-08-19T13:28:05;28.80;99.90
22742;DHT22;11538;48.884;8.696;2022-08-19T13:30:33;28.70;99.90
22742;DHT22;11538;48.884;8.696;2022-08-19T13:33:18;28.50;99.90
22742;DHT22;11538;48.884;8.696;2022-08-19T13:35:57;28.40;99.90
22742;DHT22;11538;48.884;8.696;2022-08-19T13:38:27;28.20;99.90
22742;DHT22;11538;48.884;8.696;2022-08-19T13:40:54;28.10;99.90
22742;DHT22;11538;48.884;8.696;2022-08-19T13:43:25;28.00;99.90
22742;DHT22;11538;48.884;8.696;2022-08-19T13:45:54;28.00;99.90
22742;DHT22;11538;48.884;8.696;2022-08-19T13:48:25;28.00;99.90
22742;DHT22;11538;48.884;8.696;2022-08-19T13:50:55;28.40;99.90
22742;DHT22;11538;48.884;8.696;2022-08-19T13:53:22;28.80;99.90
22742;DHT22;11538;48.884;8.696;2022-08-19T13:55:50;29.30;99.90
22742;DHT22;11538;48.884;8.696;2022-08-19T13:58:17;29.70;99.90
22742;DHT22;11538;48.884;8.696;2022-08-19T14:00:45;30.00;99.90
22742;DHT22;11538;48.884;8.696;2022-08-19T14:03:13;30.10;99.90
22742;DHT22;11538;48.884;8.696;2022-08-19T14:05:40;30.10;99.90
22742;DHT22;11538;48.884;8.696;2022-08-19T14:08:07;29.80;99.90
22742;DHT22;11538;48.884;8.696;2022-08-19T14:10:35;29.60;99.90
22742;DHT22;11538;48.884;8.696;2022-08-19T14:13:03;29.30;99.90
22742;DHT22;11538;48.884;8.696;2022-08-19T14:15:30;29.10;99.90
22742;DHT22;11538;48.884;8.696;2022-08-19T14:17:58;28.80;99.90
22742;DHT22;11538;48.884;8.696;2022-08-19T14:20:25;28.50;99.90
22742;DHT22;11538;48.884;8.696;2022-08-19T14:22:53;28.20;99.90
22742;DHT22;11538;48.884;8.696;2022-08-19T14:25:24;28.00;99.90
22742;DHT22;11538;48.884;8.696;2022-08-19T14:27:53;27.80;99.90
22742;DHT22;11538;48.884;8.696;2022-08-19T14:30:29;27.70;99.90
22742;DHT22;11538;48.884;8.696;2022-08-19T14:33:00;27.50;99.90
22742;DHT22;11538;48.884;8.696;2022-08-19T14:35:29;27.40;99.90
22742;DHT22;11538;48.884;8.696;2022-08-19T14:38:02;27.40;99.90
22742;DHT22;11538;48.884;8.696;2022-08-19T14:40:31;27.30;99.90
22742;DHT22;11538;48.884;8.696;2022-08-19T14:43:01;27.30;99.90
22742;DHT22;11538;48.884;8.696;2022-08-19T14:45:34;27.40;99.90
22742;DHT22;11538;48.884;8.696;2022-08-19T14:48:07;27.60;99.90
22742;DHT22;11538;48.884;8.696;2022-08-19T14:50:44;27.80;99.90
22742;DHT22;11538;48.884;8.696;2022-08-19T14:53:11;28.10;99.90
22742;DHT22;11538;48.884;8.696;2022-08-19T14:55:43;28.20;99.90
22742;DHT22;11538;48.884;8.696;2022-08-19T14:58:12;28.30;99.90
22742;DHT22;11538;48.884;8.696;2022-08-19T15:00:57;28.40;99.90
22742;DHT22;11538;48.884;8.696;2022-08-19T15:03:25;28.40;99.90
22742;DHT22;11538;48.884;8.696;2022-08-19T15:05:53;28.40;99.90
22742;DHT22;11538;48.884;8.696;2022-08-19T15:08:20;28.30;99.90
22742;DHT22;11538;48.884;8.696;2022-08-19T15:10:51;28.20;99.90
22742;DHT22;11538;48.884;8.696;2022-08-19T15:13:18;28.20;99.90
22742;DHT22;11538;48.884;8.696;2022-08-19T15:15:45;28.20;99.90
22742;DHT22;11538;48.884;8.696;2022-08-19T15:18:13;28.10;99.90
22742;DHT22;11538;48.884;8.696;2022-08-19T15:20:40;28.10;99.90
22742;DHT22;11538;48.884;8.696;2022-08-19T15:23:16;28.10;99.90
22742;DHT22;11538;48.884;8.696;2022-08-19T15:25:44;28.10;99.90
22742;DHT22;11538;48.884;8.696;2022-08-19T15:28:11;28.20;99.90
22742;DHT22;11538;48.884;8.696;2022-08-19T15:30:39;28.20;99.90
22742;DHT22;11538;48.884;8.696;2022-08-19T15:33:07;28.20;99.90
22742;DHT22;11538;48.884;8.696;2022-08-19T15:35:34;28.20;99.90
22742;DHT22;11538;48.884;8.696;2022-08-19T15:38:03;28.20;99.90
22742;DHT22;11538;48.884;8.696;2022-08-19T15:40:35;28.10;99.90
22742;DHT22;11538;48.884;8.696;2022-08-19T15:43:02;28.10;99.90
22742;DHT22;11538;48.884;8.696;2022-08-19T15:45:29;28.00;99.90
22742;DHT22;11538;48.884;8.696;2022-08-19T15:48:01;27.90;99.90
22742;DHT22;11538;48.884;8.696;2022-08-19T15:50:34;27.80;99.90
22742;DHT22;11538;48.884;8.696;2022-08-19T15:53:05;27.70;99.90
22742;DHT22;11538;48.884;8.696;2022-08-19T15:55:40;27.60;99.90
22742;DHT22;11538;48.884;8.696;2022-08-19T15:58:12;27.60;99.90
22742;DHT22;11538;48.884;8.696;2022-08-19T16:01:03;27.50;99.90
22742;DHT22;11538;48.884;8.696;2022-08-19T16:03:54;27.40;99.90
22742;DHT22;11538;48.884;8.696;2022-08-19T16:06:50;27.40;99.90
22742;DHT22;11538;48.884;8.696;2022-08-19T16:09:20;27.30;99.90